sensor_id;sensor_type;location;lat;lon;timestamp;P1;durP1;ratioP1;P2;durP2;ratioP2
79036;SDS011;68434;59.896;30.474;2023-07-24T00:01:34;4.82;;;1.80;;
79036;SDS011;68434;59.896;30.474;2023-07-24T00:04:02;5.00;;;2.45;;
79036;SDS011;68434;59.896;30.474;2023-07-24T00:06:29;5.82;;;2.55;;
79036;SDS011;68434;59.896;30.474;2023-07-24T00:08:57;4.80;;;2.42;;
79036;SDS011;68434;59.896;30.474;2023-07-24T00:11:24;5.30;;;2.38;;
79036;SDS011;68434;59.896;30.474;2023-07-24T00:13:52;5.65;;;3.03;;
79036;SDS011;68434;59.896;30.474;2023-07-24T00:16:19;5.50;;;3.08;;
79036;SDS011;68434;59.896;30.474;2023-07-24T00:18:48;4.10;;;2.50;;
79036;SDS011;68434;59.896;30.474;2023-07-24T00:21:16;4.38;;;2.28;;
79036;SDS011;68434;59.896;30.474;2023-07-24T00:23:43;4.28;;;2.50;;
79036;SDS011;68434;59.896;30.474;2023-07-24T00:26:10;4.63;;;2.90;;
79036;SDS011;68434;59.896;30.474;2023-07-24T00:28:38;4.53;;;2.25;;
79036;SDS011;68434;59.896;30.474;2023-07-24T00:31:06;4.30;;;2.40;;
79036;SDS011;68434;59.896;30.474;2023-07-24T00:33:33;5.47;;;2.75;;
79036;SDS011;68434;59.896;30.474;2023-07-24T00:36:02;4.25;;;2.35;;
79036;SDS011;68434;59.896;30.474;2023-07-24T00:38:33;3.90;;;2.28;;
79036;SDS011;68434;59.896;30.474;2023-07-24T00:41:01;5.07;;;2.40;;
79036;SDS011;68434;59.896;30.474;2023-07-24T00:43:28;4.47;;;2.60;;
79036;SDS011;68434;59.896;30.474;2023-07-24T00:45:56;5.13;;;1.95;;
79036;SDS011;68434;59.896;30.474;2023-07-24T00:48:23;4.82;;;2.42;;
79036;SDS011;68434;59.896;30.474;2023-07-24T00:50:51;5.32;;;2.40;;
79036;SDS011;68434;59.896;30.474;2023-07-24T00:53:20;4.15;;;2.08;;
79036;SDS011;68434;59.896;30.474;2023-07-24T00:55:48;3.95;;;2.30;;
79036;SDS011;68434;59.896;30.474;2023-07-24T00:58:16;5.63;;;2.42;;
79036;SDS011;68434;59.896;30.474;2023-07-24T01:00:44;4.47;;;2.38;;
79036;SDS011;68434;59.896;30.474;2023-07-24T01:03:12;3.97;;;2.28;;
79036;SDS011;68434;59.896;30.474;2023-07-24T01:05:39;4.00;;;2.25;;
79036;SDS011;68434;59.896;30.474;2023-07-24T01:08:07;4.10;;;2.38;;
79036;SDS011;68434;59.896;30.474;2023-07-24T01:10:36;4.57;;;2.47;;
79036;SDS011;68434;59.896;30.474;2023-07-24T01:13:05;4.32;;;2.22;;
79036;SDS011;68434;59.896;30.474;2023-07-24T01:15:41;4.63;;;2.25;;
79036;SDS011;68434;59.896;30.474;2023-07-24T01:18:12;7.10;;;3.67;;
79036;SDS011;68434;59.896;30.474;2023-07-24T01:20:43;5.05;;;2.80;;
79036;SDS011;68434;59.896;30.474;2023-07-24T01:23:22;6.13;;;2.90;;
79036;SDS011;68434;59.896;30.474;2023-07-24T01:26:01;3.70;;;2.30;;
79036;SDS011;68434;59.896;30.474;2023-07-24T01:28:29;4.18;;;2.33;;
79036;SDS011;68434;59.896;30.474;2023-07-24T01:30:57;4.32;;;2.60;;
79036;SDS011;68434;59.896;30.474;2023-07-24T01:33:24;4.57;;;2.08;;
79036;SDS011;68434;59.896;30.474;2023-07-24T01:35:53;3.72;;;2.28;;
79036;SDS011;68434;59.896;30.474;2023-07-24T01:38:22;4.85;;;2.90;;
79036;SDS011;68434;59.896;30.474;2023-07-24T01:40:51;3.72;;;2.20;;
79036;SDS011;68434;59.896;30.474;2023-07-24T01:43:21;3.55;;;2.00;;
79036;SDS011;68434;59.896;30.474;2023-07-24T01:45:49;5.10;;;2.10;;
79036;SDS011;68434;59.896;30.474;2023-07-24T01:48:17;3.35;;;1.95;;
79036;SDS011;68434;59.896;30.474;2023-07-24T01:50:44;4.45;;;2.40;;
79036;SDS011;68434;59.896;30.474;2023-07-24T01:53:12;4.50;;;2.20;;
79036;SDS011;68434;59.896;30.474;2023-07-24T01:55:39;5.00;;;2.20;;
79036;SDS011;68434;59.896;30.474;2023-07-24T01:58:07;3.22;;;2.00;;
79036;SDS011;68434;59.896;30.474;2023-07-24T02:00:36;3.22;;;2.00;;
79036;SDS011;68434;59.896;30.474;2023-07-24T02:03:03;4.43;;;2.28;;
79036;SDS011;68434;59.896;30.474;2023-07-24T02:05:31;3.47;;;1.83;;
79036;SDS011;68434;59.896;30.474;2023-07-24T02:10:27;3.80;;;1.90;;
79036;SDS011;68434;59.896;30.474;2023-07-24T02:12:54;4.32;;;2.15;;
79036;SDS011;68434;59.896;30.474;2023-07-24T02:15:22;4.03;;;2.13;;
79036;SDS011;68434;59.896;30.474;2023-07-24T02:17:51;4.15;;;1.70;;
79036;SDS011;68434;59.896;30.474;2023-07-24T02:20:19;5.03;;;1.83;;
79036;SDS011;68434;59.896;30.474;2023-07-24T02:22:48;3.97;;;1.90;;
79036;SDS011;68434;59.896;30.474;2023-07-24T02:25:16;4.10;;;1.88;;
79036;SDS011;68434;59.896;30.474;2023-07-24T02:27:45;3.35;;;1.98;;
79036;SDS011;68434;59.896;30.474;2023-07-24T02:30:12;3.38;;;2.17;;
79036;SDS011;68434;59.896;30.474;2023-07-24T02:32:40;5.57;;;1.92;;
79036;SDS011;68434;59.896;30.474;2023-07-24T02:35:09;3.03;;;1.85;;
79036;SDS011;68434;59.896;30.474;2023-07-24T02:37:37;3.67;;;1.80;;
79036;SDS011;68434;59.896;30.474;2023-07-24T02:42:33;3.20;;;1.77;;
79036;SDS011;68434;59.896;30.474;2023-07-24T02:45:01;3.92;;;1.85;;
79036;SDS011;68434;59.896;30.474;2023-07-24T02:47:32;3.75;;;1.80;;
79036;SDS011;68434;59.896;30.474;2023-07-24T02:49:59;3.83;;;2.10;;
79036;SDS011;68434;59.896;30.474;2023-07-24T02:52:30;3.35;;;1.98;;
79036;SDS011;68434;59.896;30.474;2023-07-24T02:54:58;2.75;;;1.90;;
79036;SDS011;68434;59.896;30.474;2023-07-24T02:57:26;4.50;;;1.88;;
79036;SDS011;68434;59.896;30.474;2023-07-24T02:59:53;3.38;;;1.90;;
79036;SDS011;68434;59.896;30.474;2023-07-24T03:02:21;6.97;;;2.03;;
79036;SDS011;68434;59.896;30.474;2023-07-24T03:04:48;4.65;;;1.90;;
79036;SDS011;68434;59.896;30.474;2023-07-24T03:07:16;4.55;;;1.90;;
79036;SDS011;68434;59.896;30.474;2023-07-24T03:09:45;4.47;;;1.90;;
79036;SDS011;68434;59.896;30.474;2023-07-24T03:12:12;3.47;;;1.80;;
79036;SDS011;68434;59.896;30.474;2023-07-24T03:14:40;4.35;;;1.80;;
79036;SDS011;68434;59.896;30.474;2023-07-24T03:17:07;5.70;;;1.90;;
79036;SDS011;68434;59.896;30.474;2023-07-24T03:19:35;3.22;;;1.90;;
79036;SDS011;68434;59.896;30.474;2023-07-24T03:22:02;3.45;;;1.65;;
79036;SDS011;68434;59.896;30.474;2023-07-24T03:24:30;3.95;;;2.40;;
79036;SDS011;68434;59.896;30.474;2023-07-24T03:26:59;4.38;;;2.20;;
79036;SDS011;68434;59.896;30.474;2023-07-24T03:29:27;3.33;;;2.00;;
79036;SDS011;68434;59.896;30.474;2023-07-24T03:31:55;3.05;;;1.77;;
79036;SDS011;68434;59.896;30.474;2023-07-24T03:34:22;6.45;;;1.90;;
79036;SDS011;68434;59.896;30.474;2023-07-24T03:36:50;4.60;;;2.85;;
79036;SDS011;68434;59.896;30.474;2023-07-24T03:39:18;3.65;;;2.17;;
79036;SDS011;68434;59.896;30.474;2023-07-24T03:41:47;3.28;;;1.83;;
79036;SDS011;68434;59.896;30.474;2023-07-24T03:44:16;5.35;;;2.50;;
79036;SDS011;68434;59.896;30.474;2023-07-24T03:46:44;4.03;;;2.10;;
79036;SDS011;68434;59.896;30.474;2023-07-24T03:49:11;4.75;;;2.30;;
79036;SDS011;68434;59.896;30.474;2023-07-24T03:51:39;2.90;;;1.80;;
79036;SDS011;68434;59.896;30.474;2023-07-24T03:54:06;5.13;;;1.98;;
79036;SDS011;68434;59.896;30.474;2023-07-24T03:56:34;4.55;;;1.92;;
79036;SDS011;68434;59.896;30.474;2023-07-24T03:59:01;2.83;;;1.85;;
79036;SDS011;68434;59.896;30.474;2023-07-24T04:01:30;4.75;;;2.03;;
79036;SDS011;68434;59.896;30.474;2023-07-24T04:03:58;4.45;;;2.30;;
79036;SDS011;68434;59.896;30.474;2023-07-24T04:06:26;4.22;;;2.10;;
79036;SDS011;68434;59.896;30.474;2023-07-24T04:08:53;3.95;;;2.20;;
79036;SDS011;68434;59.896;30.474;2023-07-24T04:11:21;3.67;;;2.00;;
79036;SDS011;68434;59.896;30.474;2023-07-24T04:13:48;4.47;;;1.95;;
79036;SDS011;68434;59.896;30.474;2023-07-24T04:16:15;4.18;;;2.00;;
79036;SDS011;68434;59.896;30.474;2023-07-24T04:18:44;3.75;;;1.80;;
79036;SDS011;68434;59.896;30.474;2023-07-24T04:21:12;3.40;;;1.80;;
79036;SDS011;68434;59.896;30.474;2023-07-24T04:23:39;2.60;;;1.70;;
79036;SDS011;68434;59.896;30.474;2023-07-24T04:26:07;4.18;;;2.00;;
79036;SDS011;68434;59.896;30.474;2023-07-24T04:28:34;3.58;;;1.77;;
79036;SDS011;68434;59.896;30.474;2023-07-24T04:31:02;4.55;;;1.90;;
79036;SDS011;68434;59.896;30.474;2023-07-24T04:33:29;3.45;;;2.00;;
79036;SDS011;68434;59.896;30.474;2023-07-24T04:35:58;3.38;;;1.90;;
79036;SDS011;68434;59.896;30.474;2023-07-24T04:38:25;4.15;;;1.83;;
79036;SDS011;68434;59.896;30.474;2023-07-24T04:40:53;3.35;;;1.73;;
79036;SDS011;68434;59.896;30.474;2023-07-24T04:43:20;5.00;;;2.25;;
79036;SDS011;68434;59.896;30.474;2023-07-24T04:45:48;4.03;;;1.90;;
79036;SDS011;68434;59.896;30.474;2023-07-24T04:48:15;3.13;;;1.85;;
79036;SDS011;68434;59.896;30.474;2023-07-24T04:50:43;3.67;;;1.90;;
79036;SDS011;68434;59.896;30.474;2023-07-24T04:53:12;3.40;;;1.77;;
79036;SDS011;68434;59.896;30.474;2023-07-24T04:55:39;3.38;;;1.95;;
79036;SDS011;68434;59.896;30.474;2023-07-24T04:58:07;3.63;;;1.92;;
79036;SDS011;68434;59.896;30.474;2023-07-24T05:00:34;4.95;;;1.80;;
79036;SDS011;68434;59.896;30.474;2023-07-24T05:03:02;2.92;;;1.70;;
79036;SDS011;68434;59.896;30.474;2023-07-24T05:05:29;3.83;;;1.90;;
79036;SDS011;68434;59.896;30.474;2023-07-24T05:07:57;3.00;;;1.80;;
79036;SDS011;68434;59.896;30.474;2023-07-24T05:10:26;4.07;;;2.00;;
79036;SDS011;68434;59.896;30.474;2023-07-24T05:12:53;2.90;;;1.80;;
79036;SDS011;68434;59.896;30.474;2023-07-24T05:15:22;3.28;;;1.88;;
79036;SDS011;68434;59.896;30.474;2023-07-24T05:17:50;3.78;;;2.03;;
79036;SDS011;68434;59.896;30.474;2023-07-24T05:20:17;4.25;;;2.20;;
79036;SDS011;68434;59.896;30.474;2023-07-24T05:22:45;4.07;;;1.80;;
79036;SDS011;68434;59.896;30.474;2023-07-24T05:25:12;5.65;;;2.17;;
79036;SDS011;68434;59.896;30.474;2023-07-24T05:27:41;3.42;;;2.03;;
79036;SDS011;68434;59.896;30.474;2023-07-24T05:30:09;4.93;;;2.13;;
79036;SDS011;68434;59.896;30.474;2023-07-24T05:32:36;4.93;;;1.85;;
79036;SDS011;68434;59.896;30.474;2023-07-24T05:35:04;3.03;;;1.88;;
79036;SDS011;68434;59.896;30.474;2023-07-24T05:37:32;3.25;;;2.22;;
79036;SDS011;68434;59.896;30.474;2023-07-24T05:39:59;4.40;;;1.95;;
79036;SDS011;68434;59.896;30.474;2023-07-24T05:42:29;4.63;;;2.25;;
79036;SDS011;68434;59.896;30.474;2023-07-24T05:44:58;8.25;;;2.33;;
79036;SDS011;68434;59.896;30.474;2023-07-24T05:47:26;5.80;;;2.05;;
79036;SDS011;68434;59.896;30.474;2023-07-24T05:49:53;4.57;;;2.20;;
79036;SDS011;68434;59.896;30.474;2023-07-24T05:52:23;4.68;;;2.15;;
79036;SDS011;68434;59.896;30.474;2023-07-24T05:54:50;6.38;;;3.10;;
79036;SDS011;68434;59.896;30.474;2023-07-24T05:57:18;4.93;;;2.60;;
79036;SDS011;68434;59.896;30.474;2023-07-24T05:59:45;4.90;;;2.42;;
79036;SDS011;68434;59.896;30.474;2023-07-24T06:02:14;4.97;;;2.25;;
79036;SDS011;68434;59.896;30.474;2023-07-24T06:04:42;5.85;;;2.25;;
79036;SDS011;68434;59.896;30.474;2023-07-24T06:07:09;4.22;;;2.30;;
79036;SDS011;68434;59.896;30.474;2023-07-24T06:09:37;7.65;;;3.85;;
79036;SDS011;68434;59.896;30.474;2023-07-24T06:12:04;5.90;;;2.33;;
79036;SDS011;68434;59.896;30.474;2023-07-24T06:14:32;4.03;;;2.40;;
79036;SDS011;68434;59.896;30.474;2023-07-24T06:17:00;4.65;;;2.40;;
79036;SDS011;68434;59.896;30.474;2023-07-24T06:19:29;5.43;;;2.53;;
79036;SDS011;68434;59.896;30.474;2023-07-24T06:21:56;4.45;;;2.50;;
79036;SDS011;68434;59.896;30.474;2023-07-24T06:24:26;4.82;;;2.33;;
79036;SDS011;68434;59.896;30.474;2023-07-24T06:26:54;6.05;;;2.83;;
79036;SDS011;68434;59.896;30.474;2023-07-24T06:29:21;4.57;;;2.20;;
79036;SDS011;68434;59.896;30.474;2023-07-24T06:31:49;6.47;;;2.13;;
79036;SDS011;68434;59.896;30.474;2023-07-24T06:34:16;5.00;;;2.20;;
79036;SDS011;68434;59.896;30.474;2023-07-24T06:36:45;3.40;;;1.80;;
79036;SDS011;68434;59.896;30.474;2023-07-24T06:39:13;5.22;;;3.20;;
79036;SDS011;68434;59.896;30.474;2023-07-24T06:41:40;4.00;;;2.70;;
79036;SDS011;68434;59.896;30.474;2023-07-24T06:44:08;4.65;;;2.70;;
79036;SDS011;68434;59.896;30.474;2023-07-24T06:46:35;5.45;;;2.80;;
79036;SDS011;68434;59.896;30.474;2023-07-24T06:49:03;7.53;;;3.58;;
79036;SDS011;68434;59.896;30.474;2023-07-24T06:51:30;6.43;;;3.30;;
79036;SDS011;68434;59.896;30.474;2023-07-24T06:53:59;5.03;;;3.22;;
79036;SDS011;68434;59.896;30.474;2023-07-24T06:56:28;4.78;;;3.08;;
79036;SDS011;68434;59.896;30.474;2023-07-24T06:58:56;4.82;;;2.55;;
79036;SDS011;68434;59.896;30.474;2023-07-24T07:01:23;4.07;;;2.33;;
79036;SDS011;68434;59.896;30.474;2023-07-24T07:03:51;4.05;;;2.03;;
79036;SDS011;68434;59.896;30.474;2023-07-24T07:06:18;7.20;;;3.53;;
79036;SDS011;68434;59.896;30.474;2023-07-24T07:08:45;7.00;;;2.60;;
79036;SDS011;68434;59.896;30.474;2023-07-24T07:11:14;5.22;;;2.58;;
79036;SDS011;68434;59.896;30.474;2023-07-24T07:13:42;6.85;;;3.78;;
79036;SDS011;68434;59.896;30.474;2023-07-24T07:16:10;8.07;;;5.40;;
79036;SDS011;68434;59.896;30.474;2023-07-24T07:18:37;6.72;;;3.13;;
79036;SDS011;68434;59.896;30.474;2023-07-24T07:21:05;5.93;;;2.70;;
79036;SDS011;68434;59.896;30.474;2023-07-24T07:23:32;7.40;;;3.70;;
79036;SDS011;68434;59.896;30.474;2023-07-24T07:26:00;5.63;;;3.00;;
79036;SDS011;68434;59.896;30.474;2023-07-24T07:28:29;6.40;;;2.83;;
79036;SDS011;68434;59.896;30.474;2023-07-24T07:30:56;4.70;;;2.30;;
79036;SDS011;68434;59.896;30.474;2023-07-24T07:33:24;4.57;;;2.50;;
79036;SDS011;68434;59.896;30.474;2023-07-24T07:35:54;4.18;;;2.42;;
79036;SDS011;68434;59.896;30.474;2023-07-24T07:38:21;3.92;;;2.13;;
79036;SDS011;68434;59.896;30.474;2023-07-24T07:40:50;4.32;;;2.30;;
79036;SDS011;68434;59.896;30.474;2023-07-24T07:43:17;5.13;;;2.65;;
79036;SDS011;68434;59.896;30.474;2023-07-24T07:45:47;4.18;;;2.08;;
79036;SDS011;68434;59.896;30.474;2023-07-24T07:48:14;4.85;;;1.90;;
79036;SDS011;68434;59.896;30.474;2023-07-24T07:50:42;3.97;;;2.38;;
79036;SDS011;68434;59.896;30.474;2023-07-24T07:53:09;6.25;;;3.20;;
79036;SDS011;68434;59.896;30.474;2023-07-24T07:55:37;5.93;;;2.72;;
79036;SDS011;68434;59.896;30.474;2023-07-24T07:58:04;6.30;;;2.70;;
79036;SDS011;68434;59.896;30.474;2023-07-24T08:00:32;5.00;;;2.53;;
79036;SDS011;68434;59.896;30.474;2023-07-24T08:03:01;5.93;;;3.20;;
79036;SDS011;68434;59.896;30.474;2023-07-24T08:05:29;4.75;;;2.53;;
79036;SDS011;68434;59.896;30.474;2023-07-24T08:07:57;5.90;;;3.13;;
79036;SDS011;68434;59.896;30.474;2023-07-24T08:10:25;7.47;;;2.58;;
79036;SDS011;68434;59.896;30.474;2023-07-24T08:12:52;5.80;;;2.40;;
79036;SDS011;68434;59.896;30.474;2023-07-24T08:15:20;4.97;;;2.20;;
79036;SDS011;68434;59.896;30.474;2023-07-24T08:17:47;4.55;;;2.20;;
79036;SDS011;68434;59.896;30.474;2023-07-24T08:20:17;5.22;;;2.00;;
79036;SDS011;68434;59.896;30.474;2023-07-24T08:22:44;3.25;;;2.17;;
79036;SDS011;68434;59.896;30.474;2023-07-24T08:25:12;4.22;;;1.85;;
79036;SDS011;68434;59.896;30.474;2023-07-24T08:27:39;3.15;;;1.63;;
79036;SDS011;68434;59.896;30.474;2023-07-24T08:30:08;3.45;;;1.60;;
79036;SDS011;68434;59.896;30.474;2023-07-24T08:32:36;3.03;;;1.70;;
79036;SDS011;68434;59.896;30.474;2023-07-24T08:35:04;3.85;;;1.77;;
79036;SDS011;68434;59.896;30.474;2023-07-24T08:37:34;4.68;;;1.77;;
79036;SDS011;68434;59.896;30.474;2023-07-24T08:40:01;5.82;;;2.15;;
79036;SDS011;68434;59.896;30.474;2023-07-24T08:42:31;4.97;;;1.73;;
79036;SDS011;68434;59.896;30.474;2023-07-24T08:44:59;6.00;;;2.00;;
79036;SDS011;68434;59.896;30.474;2023-07-24T08:47:31;4.82;;;2.08;;
79036;SDS011;68434;59.896;30.474;2023-07-24T08:49:58;4.45;;;2.08;;
79036;SDS011;68434;59.896;30.474;2023-07-24T08:52:26;5.45;;;2.35;;
79036;SDS011;68434;59.896;30.474;2023-07-24T08:54:55;4.57;;;2.05;;
79036;SDS011;68434;59.896;30.474;2023-07-24T08:57:25;4.07;;;2.10;;
79036;SDS011;68434;59.896;30.474;2023-07-24T08:59:52;6.45;;;2.03;;
79036;SDS011;68434;59.896;30.474;2023-07-24T09:02:20;4.63;;;2.30;;
79036;SDS011;68434;59.896;30.474;2023-07-24T09:04:47;6.10;;;2.40;;
79036;SDS011;68434;59.896;30.474;2023-07-24T09:07:15;4.25;;;2.40;;
79036;SDS011;68434;59.896;30.474;2023-07-24T09:09:43;5.18;;;2.30;;
79036;SDS011;68434;59.896;30.474;2023-07-24T09:12:12;5.88;;;2.45;;
79036;SDS011;68434;59.896;30.474;2023-07-24T09:14:42;5.65;;;2.10;;
79036;SDS011;68434;59.896;30.474;2023-07-24T09:17:11;5.90;;;2.22;;
79036;SDS011;68434;59.896;30.474;2023-07-24T09:19:39;4.28;;;2.17;;
79036;SDS011;68434;59.896;30.474;2023-07-24T09:22:10;5.70;;;2.60;;
79036;SDS011;68434;59.896;30.474;2023-07-24T09:24:48;5.18;;;2.17;;
79036;SDS011;68434;59.896;30.474;2023-07-24T09:27:19;5.28;;;2.42;;
79036;SDS011;68434;59.896;30.474;2023-07-24T09:29:46;6.88;;;3.08;;
79036;SDS011;68434;59.896;30.474;2023-07-24T09:32:20;5.15;;;3.13;;
79036;SDS011;68434;59.896;30.474;2023-07-24T09:34:49;5.50;;;2.50;;
79036;SDS011;68434;59.896;30.474;2023-07-24T09:37:26;6.63;;;2.67;;
79036;SDS011;68434;59.896;30.474;2023-07-24T09:42:29;5.30;;;2.53;;
79036;SDS011;68434;59.896;30.474;2023-07-24T09:44:57;5.47;;;2.90;;
79036;SDS011;68434;59.896;30.474;2023-07-24T09:47:25;4.13;;;2.83;;
79036;SDS011;68434;59.896;30.474;2023-07-24T09:49:53;6.55;;;2.88;;
79036;SDS011;68434;59.896;30.474;2023-07-24T09:52:21;4.88;;;2.42;;
79036;SDS011;68434;59.896;30.474;2023-07-24T09:54:54;5.45;;;2.58;;
79036;SDS011;68434;59.896;30.474;2023-07-24T09:57:26;5.88;;;2.50;;
79036;SDS011;68434;59.896;30.474;2023-07-24T09:59:57;4.60;;;2.50;;
79036;SDS011;68434;59.896;30.474;2023-07-24T10:02:26;3.67;;;2.03;;
79036;SDS011;68434;59.896;30.474;2023-07-24T10:04:55;3.45;;;2.15;;
79036;SDS011;68434;59.896;30.474;2023-07-24T10:07:23;5.25;;;2.05;;
79036;SDS011;68434;59.896;30.474;2023-07-24T10:09:51;4.45;;;1.90;;
79036;SDS011;68434;59.896;30.474;2023-07-24T10:12:19;3.63;;;1.90;;
79036;SDS011;68434;59.896;30.474;2023-07-24T10:14:49;3.10;;;1.83;;
79036;SDS011;68434;59.896;30.474;2023-07-24T10:17:35;3.70;;;1.75;;
79036;SDS011;68434;59.896;30.474;2023-07-24T10:20:04;3.13;;;1.80;;
79036;SDS011;68434;59.896;30.474;2023-07-24T10:22:33;3.30;;;1.88;;
79036;SDS011;68434;59.896;30.474;2023-07-24T10:25:01;4.50;;;1.90;;
79036;SDS011;68434;59.896;30.474;2023-07-24T10:27:29;4.00;;;1.80;;
79036;SDS011;68434;59.896;30.474;2023-07-24T10:30:02;5.93;;;2.45;;
79036;SDS011;68434;59.896;30.474;2023-07-24T10:32:33;5.88;;;2.40;;
79036;SDS011;68434;59.896;30.474;2023-07-24T10:35:06;4.53;;;2.47;;
79036;SDS011;68434;59.896;30.474;2023-07-24T10:37:36;5.70;;;2.80;;
79036;SDS011;68434;59.896;30.474;2023-07-24T10:40:04;4.78;;;3.38;;
79036;SDS011;68434;59.896;30.474;2023-07-24T10:42:33;4.63;;;3.30;;
79036;SDS011;68434;59.896;30.474;2023-07-24T10:45:06;4.65;;;3.25;;
79036;SDS011;68434;59.896;30.474;2023-07-24T10:47:37;6.07;;;3.00;;
79036;SDS011;68434;59.896;30.474;2023-07-24T10:50:05;5.50;;;2.67;;
79036;SDS011;68434;59.896;30.474;2023-07-24T10:52:33;4.43;;;2.50;;
79036;SDS011;68434;59.896;30.474;2023-07-24T10:55:01;3.95;;;2.30;;
79036;SDS011;68434;59.896;30.474;2023-07-24T10:57:32;6.20;;;2.35;;
79036;SDS011;68434;59.896;30.474;2023-07-24T10:59:59;5.53;;;2.35;;
79036;SDS011;68434;59.896;30.474;2023-07-24T11:02:33;5.93;;;2.47;;
79036;SDS011;68434;59.896;30.474;2023-07-24T11:05:01;3.97;;;2.38;;
79036;SDS011;68434;59.896;30.474;2023-07-24T11:07:32;5.70;;;2.65;;
79036;SDS011;68434;59.896;30.474;2023-07-24T11:10:00;4.57;;;2.30;;
79036;SDS011;68434;59.896;30.474;2023-07-24T11:12:29;3.55;;;2.33;;
79036;SDS011;68434;59.896;30.474;2023-07-24T11:14:57;3.70;;;2.47;;
79036;SDS011;68434;59.896;30.474;2023-07-24T11:17:34;5.05;;;3.40;;
79036;SDS011;68434;59.896;30.474;2023-07-24T11:20:06;5.43;;;3.20;;
79036;SDS011;68434;59.896;30.474;2023-07-24T11:22:35;7.07;;;4.50;;
79036;SDS011;68434;59.896;30.474;2023-07-24T11:25:05;5.22;;;3.10;;
79036;SDS011;68434;59.896;30.474;2023-07-24T11:27:33;5.50;;;3.30;;
79036;SDS011;68434;59.896;30.474;2023-07-24T11:30:05;8.07;;;4.03;;
79036;SDS011;68434;59.896;30.474;2023-07-24T11:32:34;5.78;;;3.25;;
79036;SDS011;68434;59.896;30.474;2023-07-24T11:35:02;7.10;;;4.25;;
79036;SDS011;68434;59.896;30.474;2023-07-24T11:37:30;6.32;;;3.45;;
79036;SDS011;68434;59.896;30.474;2023-07-24T11:39:58;11.45;;;3.13;;
79036;SDS011;68434;59.896;30.474;2023-07-24T11:42:31;7.07;;;4.07;;
79036;SDS011;68434;59.896;30.474;2023-07-24T11:45:00;6.00;;;3.03;;
79036;SDS011;68434;59.896;30.474;2023-07-24T11:47:35;4.10;;;2.50;;
79036;SDS011;68434;59.896;30.474;2023-07-24T11:50:08;4.53;;;2.90;;
79036;SDS011;68434;59.896;30.474;2023-07-24T11:52:40;5.53;;;3.00;;
79036;SDS011;68434;59.896;30.474;2023-07-24T11:55:09;5.05;;;3.00;;
79036;SDS011;68434;59.896;30.474;2023-07-24T11:57:37;4.10;;;2.85;;
79036;SDS011;68434;59.896;30.474;2023-07-24T12:00:06;5.35;;;2.78;;
79036;SDS011;68434;59.896;30.474;2023-07-24T12:02:46;6.32;;;3.03;;
79036;SDS011;68434;59.896;30.474;2023-07-24T12:05:17;4.10;;;2.50;;
79036;SDS011;68434;59.896;30.474;2023-07-24T12:07:45;7.65;;;2.90;;
79036;SDS011;68434;59.896;30.474;2023-07-24T12:10:13;7.85;;;3.08;;
79036;SDS011;68434;59.896;30.474;2023-07-24T12:12:51;5.60;;;2.92;;
79036;SDS011;68434;59.896;30.474;2023-07-24T12:15:19;6.22;;;2.85;;
79036;SDS011;68434;59.896;30.474;2023-07-24T12:17:48;5.30;;;2.60;;
79036;SDS011;68434;59.896;30.474;2023-07-24T12:20:16;6.20;;;3.58;;
79036;SDS011;68434;59.896;30.474;2023-07-24T12:22:43;5.68;;;3.17;;
79036;SDS011;68434;59.896;30.474;2023-07-24T12:25:11;4.88;;;2.35;;
79036;SDS011;68434;59.896;30.474;2023-07-24T12:27:39;6.20;;;2.83;;
79036;SDS011;68434;59.896;30.474;2023-07-24T12:30:08;4.55;;;2.53;;
79036;SDS011;68434;59.896;30.474;2023-07-24T12:32:36;4.82;;;2.53;;
79036;SDS011;68434;59.896;30.474;2023-07-24T12:35:05;5.80;;;3.25;;
79036;SDS011;68434;59.896;30.474;2023-07-24T12:37:34;6.72;;;2.83;;
79036;SDS011;68434;59.896;30.474;2023-07-24T12:40:02;4.40;;;2.00;;
79036;SDS011;68434;59.896;30.474;2023-07-24T12:42:32;4.65;;;2.83;;
79036;SDS011;68434;59.896;30.474;2023-07-24T12:45:00;7.22;;;4.70;;
79036;SDS011;68434;59.896;30.474;2023-07-24T12:47:32;6.43;;;3.35;;
79036;SDS011;68434;59.896;30.474;2023-07-24T12:50:00;15.18;;;6.75;;
79036;SDS011;68434;59.896;30.474;2023-07-24T12:52:32;8.27;;;5.40;;
79036;SDS011;68434;59.896;30.474;2023-07-24T12:55:00;8.30;;;5.47;;
79036;SDS011;68434;59.896;30.474;2023-07-24T12:57:30;6.00;;;3.88;;
79036;SDS011;68434;59.896;30.474;2023-07-24T12:59:57;4.05;;;2.33;;
79036;SDS011;68434;59.896;30.474;2023-07-24T13:02:25;4.20;;;2.08;;
79036;SDS011;68434;59.896;30.474;2023-07-24T13:04:52;4.53;;;3.15;;
79036;SDS011;68434;59.896;30.474;2023-07-24T13:07:20;6.82;;;3.03;;
79036;SDS011;68434;59.896;30.474;2023-07-24T13:09:49;4.68;;;2.83;;
79036;SDS011;68434;59.896;30.474;2023-07-24T13:12:17;4.25;;;2.70;;
79036;SDS011;68434;59.896;30.474;2023-07-24T13:14:44;5.03;;;2.50;;
79036;SDS011;68434;59.896;30.474;2023-07-24T13:17:12;5.65;;;3.03;;
79036;SDS011;68434;59.896;30.474;2023-07-24T13:19:39;5.03;;;2.83;;
79036;SDS011;68434;59.896;30.474;2023-07-24T13:22:08;4.65;;;1.85;;
79036;SDS011;68434;59.896;30.474;2023-07-24T13:24:35;2.88;;;1.90;;
79036;SDS011;68434;59.896;30.474;2023-07-24T13:27:05;3.47;;;2.20;;
79036;SDS011;68434;59.896;30.474;2023-07-24T13:29:32;3.85;;;2.30;;
79036;SDS011;68434;59.896;30.474;2023-07-24T13:32:00;3.13;;;1.83;;
79036;SDS011;68434;59.896;30.474;2023-07-24T13:34:28;3.63;;;1.92;;
79036;SDS011;68434;59.896;30.474;2023-07-24T13:36:56;3.92;;;1.73;;
79036;SDS011;68434;59.896;30.474;2023-07-24T13:39:23;3.58;;;1.80;;
79036;SDS011;68434;59.896;30.474;2023-07-24T13:41:52;3.83;;;2.65;;
79036;SDS011;68434;59.896;30.474;2023-07-24T13:44:21;2.72;;;1.67;;
79036;SDS011;68434;59.896;30.474;2023-07-24T13:46:49;3.00;;;1.67;;
79036;SDS011;68434;59.896;30.474;2023-07-24T13:49:17;3.08;;;1.85;;
79036;SDS011;68434;59.896;30.474;2023-07-24T13:51:44;4.65;;;1.90;;
79036;SDS011;68434;59.896;30.474;2023-07-24T13:54:12;3.85;;;1.70;;
79036;SDS011;68434;59.896;30.474;2023-07-24T13:56:39;3.00;;;1.67;;
79036;SDS011;68434;59.896;30.474;2023-07-24T13:59:07;3.60;;;1.85;;
79036;SDS011;68434;59.896;30.474;2023-07-24T14:01:36;3.67;;;1.48;;
79036;SDS011;68434;59.896;30.474;2023-07-24T14:04:03;4.38;;;2.30;;
79036;SDS011;68434;59.896;30.474;2023-07-24T14:06:31;4.63;;;2.00;;
79036;SDS011;68434;59.896;30.474;2023-07-24T14:08:59;3.60;;;1.75;;
79036;SDS011;68434;59.896;30.474;2023-07-24T14:11:27;5.03;;;1.80;;
79036;SDS011;68434;59.896;30.474;2023-07-24T14:13:54;2.67;;;1.58;;
79036;SDS011;68434;59.896;30.474;2023-07-24T14:16:22;4.18;;;1.80;;
79036;SDS011;68434;59.896;30.474;2023-07-24T14:18:51;3.15;;;1.60;;
79036;SDS011;68434;59.896;30.474;2023-07-24T14:21:19;2.92;;;1.85;;
79036;SDS011;68434;59.896;30.474;2023-07-24T14:23:46;2.72;;;1.60;;
79036;SDS011;68434;59.896;30.474;2023-07-24T14:26:14;2.40;;;1.58;;
79036;SDS011;68434;59.896;30.474;2023-07-24T14:28:42;3.40;;;1.70;;
79036;SDS011;68434;59.896;30.474;2023-07-24T14:31:09;4.25;;;1.90;;
79036;SDS011;68434;59.896;30.474;2023-07-24T14:33:37;2.28;;;1.40;;
79036;SDS011;68434;59.896;30.474;2023-07-24T14:36:06;3.15;;;1.40;;
79036;SDS011;68434;59.896;30.474;2023-07-24T14:38:33;3.53;;;2.08;;
79036;SDS011;68434;59.896;30.474;2023-07-24T14:41:01;2.75;;;1.50;;
79036;SDS011;68434;59.896;30.474;2023-07-24T14:43:29;2.70;;;1.40;;
79036;SDS011;68434;59.896;30.474;2023-07-24T14:45:56;2.47;;;1.60;;
79036;SDS011;68434;59.896;30.474;2023-07-24T14:48:24;2.83;;;1.23;;